sensor_id;sensor_type;location;lat;lon;timestamp;pressure;altitude;pressure_sealevel;temperature;humidity
70952;BME280;67274;55.810;37.376;2023-02-01T00:02:05;98659.03;;;0.71;83.91
70952;BME280;67274;55.810;37.376;2023-02-01T00:04:31;98650.72;;;0.65;82.60
70952;BME280;67274;55.810;37.376;2023-02-01T00:06:57;98644.88;;;0.62;83.17
70952;BME280;67274;55.810;37.376;2023-02-01T00:09:23;98647.38;;;0.63;82.92
70952;BME280;67274;55.810;37.376;2023-02-01T00:11:49;98650.31;;;0.69;82.68
70952;BME280;67274;55.810;37.376;2023-02-01T00:14:15;98647.44;;;0.70;83.24
70952;BME280;67274;55.810;37.376;2023-02-01T00:16:41;98647.06;;;0.73;83.54
70952;BME280;67274;55.810;37.376;2023-02-01T00:19:11;98639.84;;;0.74;83.02
70952;BME280;67274;55.810;37.376;2023-02-01T00:21:37;98642.53;;;0.74;82.97
70952;BME280;67274;55.810;37.376;2023-02-01T00:24:04;98636.16;;;0.75;82.41
70952;BME280;67274;55.810;37.376;2023-02-01T00:26:38;98633.00;;;0.71;82.69
70952;BME280;67274;55.810;37.376;2023-02-01T00:29:08;98638.00;;;0.74;82.67
70952;BME280;67274;55.810;37.376;2023-02-01T00:31:35;98638.00;;;0.74;83.19
70952;BME280;67274;55.810;37.376;2023-02-01T00:34:00;98647.16;;;0.80;82.20
70952;BME280;67274;55.810;37.376;2023-02-01T00:36:26;98644.66;;;0.78;82.48
70952;BME280;67274;55.810;37.376;2023-02-01T00:38:53;98639.47;;;0.77;82.18
70952;BME280;67274;55.810;37.376;2023-02-01T00:41:20;98650.84;;;0.79;82.62
70952;BME280;67274;55.810;37.376;2023-02-01T00:43:47;98649.00;;;0.79;83.08
70952;BME280;67274;55.810;37.376;2023-02-01T00:46:15;98648.25;;;0.85;83.12
70952;BME280;67274;55.810;37.376;2023-02-01T00:48:42;98655.28;;;0.86;82.42
70952;BME280;67274;55.810;37.376;2023-02-01T00:51:11;98648.06;;;0.87;83.13
70952;BME280;67274;55.810;37.376;2023-02-01T00:53:37;98624.38;;;0.76;82.76
70952;BME280;67274;55.810;37.376;2023-02-01T00:56:04;98644.09;;;0.83;82.93
70952;BME280;67274;55.810;37.376;2023-02-01T00:58:31;98643.06;;;0.84;82.83
70952;BME280;67274;55.810;37.376;2023-02-01T01:03:44;98644.66;;;0.78;82.42
70952;BME280;67274;55.810;37.376;2023-02-01T01:06:14;98651.03;;;0.77;83.07
70952;BME280;67274;55.810;37.376;2023-02-01T01:08:41;98648.09;;;0.72;82.12
70952;BME280;67274;55.810;37.376;2023-02-01T01:11:09;98644.97;;;0.69;82.97
70952;BME280;67274;55.810;37.376;2023-02-01T01:13:36;98639.41;;;0.70;82.57
70952;BME280;67274;55.810;37.376;2023-02-01T01:16:04;98659.75;;;0.79;83.43
70952;BME280;67274;55.810;37.376;2023-02-01T01:18:32;98656.22;;;0.79;82.24
70952;BME280;67274;55.810;37.376;2023-02-01T01:20:59;98661.97;;;0.76;83.28
70952;BME280;67274;55.810;37.376;2023-02-01T01:23:26;98659.94;;;0.78;82.11
70952;BME280;67274;55.810;37.376;2023-02-01T01:25:52;98650.22;;;0.77;83.01
70952;BME280;67274;55.810;37.376;2023-02-01T01:28:18;98663.72;;;0.83;81.94
70952;BME280;67274;55.810;37.376;2023-02-01T01:30:45;98658.81;;;0.87;82.11
70952;BME280;67274;55.810;37.376;2023-02-01T01:33:12;98651.94;;;0.84;82.88
70952;BME280;67274;55.810;37.376;2023-02-01T01:35:37;98652.16;;;0.83;82.32
70952;BME280;67274;55.810;37.376;2023-02-01T01:38:03;98658.16;;;0.85;82.74
70952;BME280;67274;55.810;37.376;2023-02-01T01:40:30;98653.34;;;0.80;81.93
70952;BME280;67274;55.810;37.376;2023-02-01T01:42:57;98664.53;;;0.84;82.36
70952;BME280;67274;55.810;37.376;2023-02-01T01:48:29;98662.13;;;0.89;82.47
70952;BME280;67274;55.810;37.376;2023-02-01T01:51:38;98654.63;;;0.84;81.51
70952;BME280;67274;55.810;37.376;2023-02-01T01:54:21;98656.88;;;0.81;81.60
70952;BME280;67274;55.810;37.376;2023-02-01T01:56:51;98667.03;;;0.85;81.71
70952;BME280;67274;55.810;37.376;2023-02-01T01:59:20;98663.72;;;0.83;81.76
70952;BME280;67274;55.810;37.376;2023-02-01T02:01:47;98658.66;;;0.74;82.53
70952;BME280;67274;55.810;37.376;2023-02-01T02:04:13;98654.38;;;0.79;82.49
70952;BME280;67274;55.810;37.376;2023-02-01T02:07:16;98662.88;;;0.83;82.30
70952;BME280;67274;55.810;37.376;2023-02-01T02:09:43;98659.94;;;0.78;82.53
70952;BME280;67274;55.810;37.376;2023-02-01T02:12:10;98664.94;;;0.81;82.44
70952;BME280;67274;55.810;37.376;2023-02-01T02:14:36;98671.31;;;0.80;81.59
70952;BME280;67274;55.810;37.376;2023-02-01T02:20:30;98671.97;;;0.82;81.73
70952;BME280;67274;55.810;37.376;2023-02-01T02:26:16;98672.59;;;0.84;82.17
70952;BME280;67274;55.810;37.376;2023-02-01T02:31:38;98677.34;;;0.82;81.90
70952;BME280;67274;55.810;37.376;2023-02-01T02:34:20;98686.59;;;0.79;81.78
70952;BME280;67274;55.810;37.376;2023-02-01T02:39:53;98681.22;;;0.79;81.79
70952;BME280;67274;55.810;37.376;2023-02-01T02:45:27;98682.44;;;0.77;81.55
70952;BME280;67274;55.810;37.376;2023-02-01T02:49:15;98691.78;;;0.81;82.12
70952;BME280;67274;55.810;37.376;2023-02-01T02:51:16;98694.28;;;0.82;82.45
70952;BME280;67274;55.810;37.376;2023-02-01T02:54:09;98695.09;;;0.83;82.41
70952;BME280;67274;55.810;37.376;2023-02-01T02:56:56;98697.59;;;0.84;81.67
70952;BME280;67274;55.810;37.376;2023-02-01T02:59:44;98688.25;;;0.80;82.51
70952;BME280;67274;55.810;37.376;2023-02-01T03:02:32;98690.13;;;0.80;82.53
70952;BME280;67274;55.810;37.376;2023-02-01T03:05:18;98684.94;;;0.78;82.28
70952;BME280;67274;55.810;37.376;2023-02-01T03:07:53;98690.94;;;0.80;82.37
70952;BME280;67274;55.810;37.376;2023-02-01T03:16:09;98691.31;;;0.77;82.32
70952;BME280;67274;55.810;37.376;2023-02-01T03:18:44;98697.53;;;0.78;82.29
70952;BME280;67274;55.810;37.376;2023-02-01T03:21:28;98684.47;;;0.75;81.85
70952;BME280;67274;55.810;37.376;2023-02-01T03:24:01;98685.50;;;0.74;81.77
70952;BME280;67274;55.810;37.376;2023-02-01T03:26:31;98695.47;;;0.80;82.12
70952;BME280;67274;55.810;37.376;2023-02-01T03:29:08;98681.41;;;0.78;82.09
70952;BME280;67274;55.810;37.376;2023-02-01T03:31:34;98690.50;;;0.77;82.36
70952;BME280;67274;55.810;37.376;2023-02-01T03:34:01;98703.53;;;0.80;81.47
70952;BME280;67274;55.810;37.376;2023-02-01T03:36:38;98699.19;;;0.79;82.22
70952;BME280;67274;55.810;37.376;2023-02-01T03:39:17;98694.56;;;0.73;82.12
70952;BME280;67274;55.810;37.376;2023-02-01T03:41:53;98706.22;;;0.80;81.50
70952;BME280;67274;55.810;37.376;2023-02-01T03:44:34;98715.31;;;0.79;82.34
70952;BME280;67274;55.810;37.376;2023-02-01T03:47:21;98700.31;;;0.70;81.43
70952;BME280;67274;55.810;37.376;2023-02-01T03:50:04;98712.16;;;0.75;82.50
70952;BME280;67274;55.810;37.376;2023-02-01T03:52:43;98707.72;;;0.68;82.62
70952;BME280;67274;55.810;37.376;2023-02-01T03:55:13;98726.03;;;0.79;82.47
70952;BME280;67274;55.810;37.376;2023-02-01T03:57:44;98729.56;;;0.79;82.36
70952;BME280;67274;55.810;37.376;2023-02-01T04:00:16;98727.72;;;0.80;82.06
70952;BME280;67274;55.810;37.376;2023-02-01T04:02:44;98728.09;;;0.77;82.18
70952;BME280;67274;55.810;37.376;2023-02-01T04:05:10;98731.88;;;0.82;81.88
70952;BME280;67274;55.810;37.376;2023-02-01T04:07:44;98736.88;;;0.85;82.64
70952;BME280;67274;55.810;37.376;2023-02-01T04:10:11;98736.41;;;0.82;81.85
70952;BME280;67274;55.810;37.376;2023-02-01T04:12:38;98739.38;;;0.87;82.01
70952;BME280;67274;55.810;37.376;2023-02-01T04:15:04;98747.22;;;0.88;82.32
70952;BME280;67274;55.810;37.376;2023-02-01T04:17:30;98750.75;;;0.89;81.89
70952;BME280;67274;55.810;37.376;2023-02-01T04:19:56;98743.06;;;0.86;82.21
70952;BME280;67274;55.810;37.376;2023-02-01T04:22:22;98736.41;;;0.82;82.70
70952;BME280;67274;55.810;37.376;2023-02-01T04:24:48;98732.31;;;0.86;82.80
70952;BME280;67274;55.810;37.376;2023-02-01T04:27:14;98747.41;;;0.87;82.54
70952;BME280;67274;55.810;37.376;2023-02-01T04:29:41;98743.72;;;0.88;82.24
70952;BME280;67274;55.810;37.376;2023-02-01T04:32:07;98755.75;;;0.92;82.10
70952;BME280;67274;55.810;37.376;2023-02-01T04:34:33;98761.94;;;0.92;82.45
70952;BME280;67274;55.810;37.376;2023-02-01T04:36:59;98751.84;;;0.94;82.18
70952;BME280;67274;55.810;37.376;2023-02-01T04:39:25;98752.69;;;0.95;82.13
70952;BME280;67274;55.810;37.376;2023-02-01T04:41:51;98754.72;;;0.93;82.67
70952;BME280;67274;55.810;37.376;2023-02-01T04:44:18;98755.94;;;0.90;82.58
70952;BME280;67274;55.810;37.376;2023-02-01T04:46:46;98751.03;;;0.94;82.39
70952;BME280;67274;55.810;37.376;2023-02-01T04:49:12;98756.75;;;0.91;81.90
70952;BME280;67274;55.810;37.376;2023-02-01T04:51:40;98766.13;;;0.95;82.35
70952;BME280;67274;55.810;37.376;2023-02-01T04:54:06;98762.13;;;0.91;82.72
70952;BME280;67274;55.810;37.376;2023-02-01T04:56:33;98773.72;;;0.91;82.59
70952;BME280;67274;55.810;37.376;2023-02-01T04:59:00;98775.09;;;0.87;82.09
70952;BME280;67274;55.810;37.376;2023-02-01T05:01:28;98770.38;;;0.89;82.51
70952;BME280;67274;55.810;37.376;2023-02-01T05:03:54;98781.59;;;0.93;82.37
70952;BME280;67274;55.810;37.376;2023-02-01T05:06:20;98771.88;;;0.92;82.85
70952;BME280;67274;55.810;37.376;2023-02-01T05:08:46;98775.38;;;0.92;83.01
70952;BME280;67274;55.810;37.376;2023-02-01T05:11:12;98783.25;;;0.94;82.91
70952;BME280;67274;55.810;37.376;2023-02-01T05:13:57;98773.72;;;0.91;82.27
70952;BME280;67274;55.810;37.376;2023-02-01T05:16:23;98776.78;;;0.88;82.04
70952;BME280;67274;55.810;37.376;2023-02-01T05:18:50;98780.47;;;0.87;82.15
70952;BME280;67274;55.810;37.376;2023-02-01T05:21:16;98775.09;;;0.87;81.82
70952;BME280;67274;55.810;37.376;2023-02-01T05:23:42;98794.38;;;0.91;82.30
70952;BME280;67274;55.810;37.376;2023-02-01T05:26:26;98780.94;;;0.91;82.28
70952;BME280;67274;55.810;37.376;2023-02-01T05:28:52;98784.00;;;0.88;82.50
70952;BME280;67274;55.810;37.376;2023-02-01T05:31:18;98784.00;;;0.88;82.29
70952;BME280;67274;55.810;37.376;2023-02-01T05:33:44;98792.69;;;0.90;82.85
70952;BME280;67274;55.810;37.376;2023-02-01T05:36:10;98792.88;;;0.88;82.34
70952;BME280;67274;55.810;37.376;2023-02-01T05:38:36;98796.69;;;0.94;82.40
70952;BME280;67274;55.810;37.376;2023-02-01T05:41:02;98802.88;;;0.94;82.65
70952;BME280;67274;55.810;37.376;2023-02-01T05:43:28;98783.44;;;0.92;82.40
70952;BME280;67274;55.810;37.376;2023-02-01T05:45:54;98789.00;;;0.91;82.06
70952;BME280;67274;55.810;37.376;2023-02-01T05:48:20;98803.72;;;0.95;82.76
70952;BME280;67274;55.810;37.376;2023-02-01T05:50:46;98798.53;;;0.93;82.79
70952;BME280;67274;55.810;37.376;2023-02-01T05:53:12;98785.84;;;0.87;83.24
70952;BME280;67274;55.810;37.376;2023-02-01T05:55:38;98784.09;;;0.80;83.18
70952;BME280;67274;55.810;37.376;2023-02-01T05:58:05;98792.06;;;0.88;83.18
70952;BME280;67274;55.810;37.376;2023-02-01T06:00:31;98808.81;;;0.90;82.84
70952;BME280;67274;55.810;37.376;2023-02-01T06:02:57;98769.09;;;0.71;83.35
70952;BME280;67274;55.810;37.376;2023-02-01T06:05:23;98793.44;;;0.84;83.27
70952;BME280;67274;55.810;37.376;2023-02-01T06:07:49;98780.03;;;0.69;83.52
70952;BME280;67274;55.810;37.376;2023-02-01T06:10:16;98774.00;;;0.67;83.38
70952;BME280;67274;55.810;37.376;2023-02-01T06:12:43;98819.56;;;0.90;83.06
70952;BME280;67274;55.810;37.376;2023-02-01T06:15:13;98784.84;;;0.74;83.53
70952;BME280;67274;55.810;37.376;2023-02-01T06:17:42;98783.00;;;0.74;83.47
70952;BME280;67274;55.810;37.376;2023-02-01T06:20:10;98800.28;;;0.86;82.70
70952;BME280;67274;55.810;37.376;2023-02-01T06:22:36;98810.28;;;0.92;83.53
70952;BME280;67274;55.810;37.376;2023-02-01T06:25:07;98794.28;;;0.84;83.74
70952;BME280;67274;55.810;37.376;2023-02-01T06:27:34;98814.28;;;0.96;83.15
70952;BME280;67274;55.810;37.376;2023-02-01T06:30:00;98742.91;;;0.58;83.45
70952;BME280;67274;55.810;37.376;2023-02-01T06:32:27;98796.59;;;0.87;83.29
70952;BME280;67274;55.810;37.376;2023-02-01T06:34:53;98799.47;;;0.86;82.40
70952;BME280;67274;55.810;37.376;2023-02-01T06:37:19;98799.66;;;0.84;82.58
70952;BME280;67274;55.810;37.376;2023-02-01T06:39:45;98798.53;;;0.79;82.54
70952;BME280;67274;55.810;37.376;2023-02-01T06:42:12;98824.38;;;0.94;83.43
70952;BME280;67274;55.810;37.376;2023-02-01T06:44:38;98829.19;;;0.99;83.20
70952;BME280;67274;55.810;37.376;2023-02-01T06:47:04;98829.00;;;1.01;83.00
70952;BME280;67274;55.810;37.376;2023-02-01T06:52:36;98805.66;;;0.86;82.67
70952;BME280;67274;55.810;37.376;2023-02-01T06:55:02;98833.81;;;1.05;82.39
70952;BME280;67274;55.810;37.376;2023-02-01T06:57:28;98783.63;;;0.76;82.70
70952;BME280;67274;55.810;37.376;2023-02-01T06:59:56;98810.28;;;0.92;82.25
70952;BME280;67274;55.810;37.376;2023-02-01T07:02:30;98840.03;;;1.06;82.89
70952;BME280;67274;55.810;37.376;2023-02-01T07:05:03;98818.16;;;0.94;81.84
70952;BME280;67274;55.810;37.376;2023-02-01T07:07:29;98817.16;;;0.95;82.97
70952;BME280;67274;55.810;37.376;2023-02-01T07:10:00;98846.22;;;1.06;82.92
70952;BME280;67274;55.810;37.376;2023-02-01T07:12:26;98845.13;;;1.01;82.45
70952;BME280;67274;55.810;37.376;2023-02-01T07:14:52;98841.22;;;1.03;82.97
70952;BME280;67274;55.810;37.376;2023-02-01T07:17:18;98851.13;;;1.03;83.01
70952;BME280;67274;55.810;37.376;2023-02-01T07:19:44;98808.63;;;0.77;82.32
70952;BME280;67274;55.810;37.376;2023-02-01T07:22:10;98828.63;;;0.89;82.10
70952;BME280;67274;55.810;37.376;2023-02-01T07:24:36;98834.19;;;0.87;82.35
70952;BME280;67274;55.810;37.376;2023-02-01T07:27:11;98849.94;;;0.90;82.03
70952;BME280;67274;55.810;37.376;2023-02-01T07:30:11;98859.84;;;1.05;81.96
70952;BME280;67274;55.810;37.376;2023-02-01T07:32:37;98830.03;;;0.85;82.72
70952;BME280;67274;55.810;37.376;2023-02-01T07:35:03;98837.97;;;0.93;82.53
70952;BME280;67274;55.810;37.376;2023-02-01T07:37:29;98857.34;;;1.03;82.11
70952;BME280;67274;55.810;37.376;2023-02-01T07:39:56;98831.78;;;0.92;81.86
70952;BME280;67274;55.810;37.376;2023-02-01T07:42:22;98852.72;;;1.12;82.02
70952;BME280;67274;55.810;37.376;2023-02-01T07:44:56;98860.38;;;1.15;81.97
70952;BME280;67274;55.810;37.376;2023-02-01T07:47:22;98854.84;;;1.16;81.75
70952;BME280;67274;55.810;37.376;2023-02-01T07:49:48;98847.53;;;1.10;82.15
70952;BME280;67274;55.810;37.376;2023-02-01T07:52:20;98833.16;;;1.03;82.03
70952;BME280;67274;55.810;37.376;2023-02-01T07:54:55;98858.34;;;1.17;81.58
70952;BME280;67274;55.810;37.376;2023-02-01T07:57:26;98830.47;;;1.03;81.53
70952;BME280;67274;55.810;37.376;2023-02-01T08:00:05;98832.34;;;1.03;82.28
70952;BME280;67274;55.810;37.376;2023-02-01T08:02:50;98829.72;;;1.09;81.50
70952;BME280;67274;55.810;37.376;2023-02-01T08:05:16;98859.84;;;1.19;80.98
70952;BME280;67274;55.810;37.376;2023-02-01T08:08:00;98861.69;;;1.19;81.87
70952;BME280;67274;55.810;37.376;2023-02-01T08:14:10;98850.75;;;1.20;81.89
70952;BME280;67274;55.810;37.376;2023-02-01T08:16:36;98860.09;;;1.24;80.84
70952;BME280;67274;55.810;37.376;2023-02-01T08:19:08;98820.38;;;1.05;81.03
70952;BME280;67274;55.810;37.376;2023-02-01T08:21:34;98850.47;;;1.30;80.72
70952;BME280;67274;55.810;37.376;2023-02-01T08:24:08;98826.75;;;1.19;80.57
70952;BME280;67274;55.810;37.376;2023-02-01T08:26:34;98824.25;;;1.17;81.02
70952;BME280;67274;55.810;37.376;2023-02-01T08:29:03;98823.88;;;1.20;81.76
70952;BME280;67274;55.810;37.376;2023-02-01T08:31:30;98845.91;;;1.30;80.46
70952;BME280;67274;55.810;37.376;2023-02-01T08:33:59;98853.59;;;1.34;81.14
70952;BME280;67274;55.810;37.376;2023-02-01T08:36:27;98829.06;;;1.22;81.36
70952;BME280;67274;55.810;37.376;2023-02-01T08:38:53;98824.53;;;1.22;81.61
70952;BME280;67274;55.810;37.376;2023-02-01T08:41:22;98841.00;;;1.34;80.62
70952;BME280;67274;55.810;37.376;2023-02-01T08:44:01;98828.78;;;1.32;81.10
70952;BME280;67274;55.810;37.376;2023-02-01T08:46:48;98820.06;;;1.29;80.38
70952;BME280;67274;55.810;37.376;2023-02-01T08:49:38;98825.72;;;1.35;81.14
70952;BME280;67274;55.810;37.376;2023-02-01T08:52:04;98855.31;;;1.56;81.19
70952;BME280;67274;55.810;37.376;2023-02-01T08:54:30;98825.22;;;1.46;81.02
70952;BME280;67274;55.810;37.376;2023-02-01T08:56:56;98838.63;;;1.60;80.06
70952;BME280;67274;55.810;37.376;2023-02-01T08:59:22;98824.34;;;1.60;80.46
70952;BME280;67274;55.810;37.376;2023-02-01T09:01:48;98851.66;;;1.78;80.62
70952;BME280;67274;55.810;37.376;2023-02-01T09:04:14;98812.94;;;1.58;79.84
70952;BME280;67274;55.810;37.376;2023-02-01T09:06:46;98836.28;;;1.72;79.41
70952;BME280;67274;55.810;37.376;2023-02-01T09:09:33;98854.53;;;1.77;79.39
70952;BME280;67274;55.810;37.376;2023-02-01T09:12:14;98807.50;;;1.51;79.83
70952;BME280;67274;55.810;37.376;2023-02-01T09:15:02;98808.59;;;1.57;79.45
70952;BME280;67274;55.810;37.376;2023-02-01T09:17:29;98825.06;;;1.69;80.29
70952;BME280;67274;55.810;37.376;2023-02-01T09:19:55;98794.88;;;1.52;80.55
70952;BME280;67274;55.810;37.376;2023-02-01T09:22:21;98805.16;;;1.63;79.64
70952;BME280;67274;55.810;37.376;2023-02-01T09:24:47;98828.53;;;1.84;79.41
70952;BME280;67274;55.810;37.376;2023-02-01T09:27:13;98788.81;;;1.65;78.70
70952;BME280;67274;55.810;37.376;2023-02-01T09:29:39;98797.84;;;1.78;79.27
70952;BME280;67274;55.810;37.376;2023-02-01T09:32:05;98813.22;;;1.84;79.36
70952;BME280;67274;55.810;37.376;2023-02-01T09:34:32;98797.84;;;1.78;78.59
70952;BME280;67274;55.810;37.376;2023-02-01T09:37:10;98810.91;;;1.81;78.34
70952;BME280;67274;55.810;37.376;2023-02-01T09:39:45;98801.56;;;1.77;79.21
70952;BME280;67274;55.810;37.376;2023-02-01T09:42:54;98826.66;;;1.84;79.60
70952;BME280;67274;55.810;37.376;2023-02-01T09:45:29;98832.81;;;1.78;79.30
70952;BME280;67274;55.810;37.376;2023-02-01T09:48:03;98817.56;;;1.64;79.95
70952;BME280;67274;55.810;37.376;2023-02-01T09:50:36;98807.38;;;1.59;78.81
70952;BME280;67274;55.810;37.376;2023-02-01T09:53:34;98827.81;;;1.75;79.00
70952;BME280;67274;55.810;37.376;2023-02-01T09:56:20;98831.16;;;1.77;79.82
70952;BME280;67274;55.810;37.376;2023-02-01T09:59:08;98827.81;;;1.75;79.58
70952;BME280;67274;55.810;37.376;2023-02-01T10:01:36;98801.06;;;1.67;78.85
70952;BME280;67274;55.810;37.376;2023-02-01T10:04:05;98773.66;;;1.57;78.61
70952;BME280;67274;55.810;37.376;2023-02-01T10:15:30;98822.00;;;1.93;79.32
70952;BME280;67274;55.810;37.376;2023-02-01T10:26:21;98824.41;;;1.67;79.30
70952;BME280;67274;55.810;37.376;2023-02-01T10:32:32;98823.59;;;1.66;79.12
70952;BME280;67274;55.810;37.376;2023-02-01T10:35:31;98805.84;;;1.50;79.22
70952;BME280;67274;55.810;37.376;2023-02-01T10:38:02;98823.13;;;1.62;79.89
70952;BME280;67274;55.810;37.376;2023-02-01T10:40:31;98815.06;;;1.62;79.42
70952;BME280;67274;55.810;37.376;2023-02-01T10:42:59;98804.81;;;1.51;78.42
70952;BME280;67274;55.810;37.376;2023-02-01T10:45:29;98805.47;;;1.53;79.23
70952;BME280;67274;55.810;37.376;2023-02-01T10:47:58;98833.31;;;1.67;78.15
70952;BME280;67274;55.810;37.376;2023-02-01T10:50:44;98820.44;;;1.62;78.42
70952;BME280;67274;55.810;37.376;2023-02-01T10:53:21;98793.16;;;1.44;79.09
70952;BME280;67274;55.810;37.376;2023-02-01T10:55:52;98817.81;;;1.69;78.30
70952;BME280;67274;55.810;37.376;2023-02-01T10:58:20;98825.91;;;1.69;79.23
70952;BME280;67274;55.810;37.376;2023-02-01T11:01:06;98798.78;;;1.49;78.21
70952;BME280;67274;55.810;37.376;2023-02-01T11:03:45;98796.75;;;1.51;79.10
70952;BME280;67274;55.810;37.376;2023-02-01T11:06:35;98790.53;;;1.51;78.71
70952;BME280;67274;55.810;37.376;2023-02-01T11:11:55;98810.91;;;1.60;79.40
70952;BME280;67274;55.810;37.376;2023-02-01T11:19:47;98814.16;;;1.55;78.72
70952;BME280;67274;55.810;37.376;2023-02-01T11:22:21;98821.19;;;1.56;78.46
70952;BME280;67274;55.810;37.376;2023-02-01T11:24:47;98776.88;;;1.31;78.32
70952;BME280;67274;55.810;37.376;2023-02-01T11:27:16;98783.16;;;1.38;78.22
70952;BME280;67274;55.810;37.376;2023-02-01T11:29:49;98832.09;;;1.70;79.12
70952;BME280;67274;55.810;37.376;2023-02-01T11:32:17;98825.06;;;1.69;77.87
70952;BME280;67274;55.810;37.376;2023-02-01T11:34:51;98822.50;;;1.60;79.32
70952;BME280;67274;55.810;37.376;2023-02-01T11:39:58;98814.91;;;1.49;79.59
70952;BME280;67274;55.810;37.376;2023-02-01T11:42:25;98845.03;;;1.59;78.51
70952;BME280;67274;55.810;37.376;2023-02-01T11:45:15;98838.94;;;1.51;79.08
70952;BME280;67274;55.810;37.376;2023-02-01T11:47:42;98818.03;;;1.32;78.48
70952;BME280;67274;55.810;37.376;2023-02-01T11:50:21;98816.34;;;1.30;79.49
70952;BME280;67274;55.810;37.376;2023-02-01T12:06:31;98838.91;;;1.00;79.34
70952;BME280;67274;55.810;37.376;2023-02-01T12:12:00;98851.59;;;1.06;79.42
70952;BME280;67274;55.810;37.376;2023-02-01T12:22:45;98852.91;;;0.95;79.80
70952;BME280;67274;55.810;37.376;2023-02-01T12:39:02;98859.28;;;1.09;79.97
70952;BME280;67274;55.810;37.376;2023-02-01T12:47:16;98860.94;;;1.10;79.61
70952;BME280;67274;55.810;37.376;2023-02-01T12:52:30;98841.31;;;0.95;79.83
70952;BME280;67274;55.810;37.376;2023-02-01T12:57:35;98828.06;;;0.93;79.99
70952;BME280;67274;55.810;37.376;2023-02-01T13:02:56;98840.41;;;0.88;79.35
70952;BME280;67274;55.810;37.376;2023-02-01T13:05:51;98847.81;;;0.86;79.00
70952;BME280;67274;55.810;37.376;2023-02-01T13:08:22;98863.81;;;0.94;79.78
70952;BME280;67274;55.810;37.376;2023-02-01T13:11:03;98857.63;;;0.93;79.88
70952;BME280;67274;55.810;37.376;2023-02-01T13:16:30;98868.00;;;0.96;79.77
70952;BME280;67274;55.810;37.376;2023-02-01T13:19:26;98861.50;;;0.91;79.73
70952;BME280;67274;55.810;37.376;2023-02-01T13:22:38;98850.94;;;0.89;79.33
70952;BME280;67274;55.810;37.376;2023-02-01T13:24:54;98834.75;;;0.83;79.03
70952;BME280;67274;55.810;37.376;2023-02-01T13:27:25;98862.91;;;1.02;79.28
70952;BME280;67274;55.810;37.376;2023-02-01T13:30:30;98870.97;;;1.02;79.94
70952;BME280;67274;55.810;37.376;2023-02-01T13:33:15;98873.66;;;1.02;79.17
70952;BME280;67274;55.810;37.376;2023-02-01T13:43:39;98864.66;;;0.94;79.50
70952;BME280;67274;55.810;37.376;2023-02-01T13:46:09;98875.50;;;1.01;78.32
70952;BME280;67274;55.810;37.376;2023-02-01T13:48:41;98863.28;;;0.98;79.55
70952;BME280;67274;55.810;37.376;2023-02-01T13:51:12;98869.84;;;0.96;79.07
70952;BME280;67274;55.810;37.376;2023-02-01T13:53:45;98861.78;;;0.96;79.42
70952;BME280;67274;55.810;37.376;2023-02-01T13:56:18;98812.16;;;0.62;78.85
70952;BME280;67274;55.810;37.376;2023-02-01T13:58:46;98867.16;;;0.96;78.47
70952;BME280;67274;55.810;37.376;2023-02-01T14:03:52;98838.16;;;0.77;79.29
70952;BME280;67274;55.810;37.376;2023-02-01T14:06:41;98872.44;;;0.89;79.13
70952;BME280;67274;55.810;37.376;2023-02-01T14:11:53;98872.63;;;0.88;78.99
70952;BME280;67274;55.810;37.376;2023-02-01T14:19:34;98823.63;;;0.56;79.08
70952;BME280;67274;55.810;37.376;2023-02-01T14:24:54;98852.78;;;0.74;78.33
70952;BME280;67274;55.810;37.376;2023-02-01T14:27:24;98837.41;;;0.68;77.86
70952;BME280;67274;55.810;37.376;2023-02-01T14:30:05;98871.50;;;0.82;78.18
70952;BME280;67274;55.810;37.376;2023-02-01T14:32:39;98871.31;;;0.84;79.35
70952;BME280;67274;55.810;37.376;2023-02-01T14:35:21;98862.34;;;0.77;79.15
70952;BME280;67274;55.810;37.376;2023-02-01T14:37:53;98849.53;;;0.64;77.83
70952;BME280;67274;55.810;37.376;2023-02-01T14:40:24;98857.22;;;0.67;77.93
70952;BME280;67274;55.810;37.376;2023-02-01T14:42:52;98884.09;;;0.82;78.93
70952;BME280;67274;55.810;37.376;2023-02-01T14:50:40;98883.09;;;0.83;78.34
70952;BME280;67274;55.810;37.376;2023-02-01T15:08:58;98893.91;;;0.75;77.59
70952;BME280;67274;55.810;37.376;2023-02-01T15:11:25;98903.72;;;0.82;77.81
70952;BME280;67274;55.810;37.376;2023-02-01T15:13:52;98876.03;;;0.67;77.66
70952;BME280;67274;55.810;37.376;2023-02-01T15:16:22;98902.59;;;0.77;78.36
70952;BME280;67274;55.810;37.376;2023-02-01T15:18:49;98913.00;;;0.80;77.99
70952;BME280;67274;55.810;37.376;2023-02-01T15:21:21;98910.31;;;0.80;77.69
70952;BME280;67274;55.810;37.376;2023-02-01T15:23:47;98876.56;;;0.62;78.07
70952;BME280;67274;55.810;37.376;2023-02-01T15:26:31;98913.16;;;0.78;78.37
70952;BME280;67274;55.810;37.376;2023-02-01T15:28:58;98911.97;;;0.81;77.89
70952;BME280;67274;55.810;37.376;2023-02-01T15:31:39;98917.34;;;0.81;78.96
70952;BME280;67274;55.810;37.376;2023-02-01T15:34:06;98911.78;;;0.82;78.43
70952;BME280;67274;55.810;37.376;2023-02-01T15:36:33;98883.63;;;0.63;77.67
70952;BME280;67274;55.810;37.376;2023-02-01T15:41:51;98905.38;;;0.69;78.34
70952;BME280;67274;55.810;37.376;2023-02-01T15:44:19;98934.94;;;0.83;77.86
70952;BME280;67274;55.810;37.376;2023-02-01T15:46:48;98882.66;;;0.56;77.60
70952;BME280;67274;55.810;37.376;2023-02-01T15:51:47;98914.72;;;0.73;77.64
70952;BME280;67274;55.810;37.376;2023-02-01T15:54:19;98852.66;;;0.38;78.25
70952;BME280;67274;55.810;37.376;2023-02-01T15:56:55;98892.88;;;0.61;77.60
70952;BME280;67274;55.810;37.376;2023-02-01T15:59:45;98907.59;;;0.65;78.29
70952;BME280;67274;55.810;37.376;2023-02-01T16:02:37;98906.47;;;0.59;78.15
70952;BME280;67274;55.810;37.376;2023-02-01T16:05:21;98906.00;;;0.56;78.18
70952;BME280;67274;55.810;37.376;2023-02-01T16:07:59;98894.59;;;0.54;78.39
70952;BME280;67274;55.810;37.376;2023-02-01T16:10:30;98925.66;;;0.71;78.02
70952;BME280;67274;55.810;37.376;2023-02-01T16:12:56;98911.94;;;0.66;78.12